createdAt,value
2023-02-13T00:00:38.303Z,99598.34
2023-02-13T00:03:05.176Z,99595.94
2023-02-13T00:05:31.714Z,99598.84
2023-02-13T00:07:58.177Z,99598.25
2023-02-13T00:10:25.049Z,99592.28
2023-02-13T00:12:51.543Z,99594.50
2023-02-13T00:15:18.064Z,99596.41
2023-02-13T00:17:44.512Z,99601.31
2023-02-13T00:20:11.568Z,99600.09
2023-02-13T00:22:38.382Z,99600.50
2023-02-13T00:25:05.787Z,99593.19
2023-02-13T00:27:32.277Z,99595.69
2023-02-13T00:29:59.392Z,99589.94
2023-02-13T00:32:25.961Z,99597.13
2023-02-13T00:34:54.608Z,99593.28
2023-02-13T00:37:21.083Z,99595.09
2023-02-13T00:39:47.512Z,99597.03
2023-02-13T00:42:14.184Z,99597.75
2023-02-13T00:44:44.087Z,99591.59
2023-02-13T00:47:14.572Z,99599.69
2023-02-13T00:49:41.562Z,99601.75
2023-02-13T00:52:08.071Z,99603.13
2023-02-13T00:54:34.510Z,99600.66
2023-02-13T00:57:01.021Z,99600.56
2023-02-13T00:59:27.661Z,99599.19
2023-02-13T01:01:54.174Z,99596.31
2023-02-13T01:04:20.672Z,99597.81
2023-02-13T01:06:47.174Z,99588.94
2023-02-13T01:09:13.643Z,99588.88
2023-02-13T01:11:40.131Z,99594.47
2023-02-13T01:14:06.843Z,99592.09
2023-02-13T01:16:33.359Z,99590.34
2023-02-13T01:18:59.848Z,99590.69
2023-02-13T01:21:26.338Z,99591.78
2023-02-13T01:23:53.208Z,99587.66
2023-02-13T01:26:21.280Z,99585.91
2023-02-13T01:28:52.450Z,99589.28
2023-02-13T01:31:18.950Z,99583.72
2023-02-13T01:33:45.803Z,99580.19
2023-02-13T01:36:14.210Z,99586.50
2023-02-13T01:38:40.811Z,99584.91
2023-02-13T01:41:07.946Z,99580.88
2023-02-13T01:43:44.678Z,99585.97
2023-02-13T01:46:12.086Z,99585.03
2023-02-13T01:48:38.556Z,99581.53
2023-02-13T01:51:07.885Z,99577.38
2023-02-13T01:53:40.389Z,99584.59
2023-02-13T01:56:13.333Z,99581.94
2023-02-13T01:58:42.532Z,99588.84
2023-02-13T02:01:09.636Z,99586.97
2023-02-13T02:03:38.177Z,99586.22
2023-02-13T02:06:12.001Z,99584.41
2023-02-13T02:08:39.126Z,99577.34
2023-02-13T02:11:08.511Z,99572.34
2023-02-13T02:13:35.112Z,99570.47
2023-02-13T02:16:07.154Z,99577.25
2023-02-13T02:18:33.618Z,99576.47
2023-02-13T02:21:09.433Z,99571.03
2023-02-13T02:23:38.997Z,99572.75
2023-02-13T02:26:24.027Z,99573.84
2023-02-13T02:28:50.513Z,99579.97
2023-02-13T02:31:17.189Z,99570.19
2023-02-13T02:34:02.324Z,99575.13
2023-02-13T02:37:01.136Z,99575.25
2023-02-13T02:39:48.957Z,99576.72
2023-02-13T02:42:17.555Z,99573.75
2023-02-13T02:45:02.938Z,99584.38
2023-02-13T02:47:48.122Z,99573.56
2023-02-13T02:50:22.436Z,99577.03
2023-02-13T02:52:56.689Z,99571.88
2023-02-13T02:55:51.239Z,99572.72
2023-02-13T02:58:42.482Z,99569.06
2023-02-13T03:01:31.434Z,99568.34
2023-02-13T03:04:18.479Z,99572.66
2023-02-13T03:06:48.349Z,99579.75
2023-02-13T03:09:45.763Z,99580.56
2023-02-13T03:12:34.345Z,99578.16
2023-02-13T03:15:00.790Z,99571.09
2023-02-13T03:17:45.653Z,99575.06
2023-02-13T03:20:33.929Z,99572.84
2023-02-13T03:23:06.559Z,99576.38
2023-02-13T03:25:50.548Z,99572.72
2023-02-13T03:28:35.728Z,99563.78
2023-02-13T03:31:05.413Z,99563.56
2023-02-13T03:33:40.713Z,99559.50
2023-02-13T03:36:25.883Z,99557.91
2023-02-13T03:38:57.312Z,99554.28
2023-02-13T03:41:27.669Z,99554.88
2023-02-13T03:44:10.996Z,99552.34
2023-02-13T03:46:39.687Z,99546.06
2023-02-13T03:49:25.877Z,99547.72
2023-02-13T03:51:52.314Z,99538.94
2023-02-13T03:54:53.263Z,99545.88
2023-02-13T03:57:39.677Z,99545.94
2023-02-13T04:00:09.786Z,99542.28
2023-02-13T04:02:48.136Z,99549.56
2023-02-13T04:05:17.244Z,99548.72
2023-02-13T04:07:43.757Z,99553.09
2023-02-13T04:10:12.070Z,99551.75
2023-02-13T04:12:57.138Z,99546.47
2023-02-13T04:15:42.272Z,99549.97
2023-02-13T04:18:11.477Z,99553.56
2023-02-13T04:20:38.313Z,99549.19
2023-02-13T04:23:09.575Z,99548.53
2023-02-13T04:25:37.736Z,99542.53
2023-02-13T04:28:04.304Z,99544.16
2023-02-13T04:30:30.862Z,99548.53
2023-02-13T04:32:57.368Z,99544.44
2023-02-13T04:35:23.993Z,99542.00
2023-02-13T04:37:50.426Z,99543.00
2023-02-13T04:40:16.988Z,99545.31
2023-02-13T04:42:43.515Z,99543.44
2023-02-13T04:45:10.062Z,99544.56
2023-02-13T04:47:36.497Z,99538.34
2023-02-13T04:50:03.068Z,99543.50
2023-02-13T04:52:29.535Z,99544.28
2023-02-13T04:54:55.953Z,99545.25
2023-02-13T04:57:22.392Z,99542.00
2023-02-13T04:59:48.831Z,99553.22
2023-02-13T05:02:15.364Z,99557.63
2023-02-13T05:04:41.833Z,99551.53
2023-02-13T05:07:08.443Z,99555.84
2023-02-13T05:09:34.925Z,99552.31
2023-02-13T05:12:01.888Z,99548.56
2023-02-13T05:14:28.432Z,99548.56
2023-02-13T05:16:54.936Z,99554.13
2023-02-13T05:19:21.397Z,99557.56
2023-02-13T05:22:06.730Z,99562.88
2023-02-13T05:24:33.226Z,99561.47
2023-02-13T05:26:59.685Z,99552.88
2023-02-13T05:29:26.270Z,99545.53
2023-02-13T05:31:54.224Z,99543.00
2023-02-13T05:34:21.571Z,99554.06
2023-02-13T05:36:48.042Z,99549.78
2023-02-13T05:39:15.337Z,99547.31
2023-02-13T05:41:42.754Z,99548.91
2023-02-13T05:44:09.241Z,99552.31
2023-02-13T05:46:38.969Z,99545.53
2023-02-13T05:49:05.620Z,99545.41
2023-02-13T05:51:32.085Z,99554.06
2023-02-13T05:53:58.765Z,99557.59
2023-02-13T05:56:25.263Z,99554.19
2023-02-13T05:58:52.823Z,99554.59
2023-02-13T06:01:19.764Z,99552.06
2023-02-13T06:03:46.314Z,99560.22
2023-02-13T06:06:13.031Z,99556.06
2023-02-13T06:08:39.474Z,99554.53
2023-02-13T06:11:05.985Z,99554.13
2023-02-13T06:13:32.447Z,99563.09
2023-02-13T06:15:58.940Z,99559.47
2023-02-13T06:18:25.485Z,99563.03
2023-02-13T06:20:51.947Z,99564.63
2023-02-13T06:23:18.456Z,99568.22
2023-02-13T06:25:44.895Z,99570.06
2023-02-13T06:28:11.505Z,99569.72
2023-02-13T06:30:38.049Z,99569.19
2023-02-13T06:33:04.697Z,99576.59
2023-02-13T06:35:31.151Z,99567.41
2023-02-13T06:37:57.633Z,99562.56
2023-02-13T06:40:24.139Z,99560.22
2023-02-13T06:42:50.628Z,99574.13
2023-02-13T06:45:17.102Z,99582.63
2023-02-13T06:47:43.923Z,99584.50
2023-02-13T06:50:12.516Z,99575.94
2023-02-13T06:52:38.990Z,99591.56
2023-02-13T06:55:05.936Z,99585.34
2023-02-13T06:57:33.222Z,99586.88
2023-02-13T07:00:00.522Z,99580.69
2023-02-13T07:02:27.025Z,99583.63
2023-02-13T07:04:53.564Z,99586.50
2023-02-13T07:07:20.055Z,99578.47
2023-02-13T07:09:46.490Z,99577.84
2023-02-13T07:12:12.917Z,99584.22
2023-02-13T07:14:39.353Z,99576.28
2023-02-13T07:17:05.916Z,99579.69
2023-02-13T07:19:32.456Z,99576.13
2023-02-13T07:21:58.900Z,99568.50
2023-02-13T07:24:25.702Z,99568.44
2023-02-13T07:26:52.381Z,99566.03
2023-02-13T07:29:18.803Z,99570.19
2023-02-13T07:31:45.326Z,99566.16
2023-02-13T07:34:11.812Z,99561.28
2023-02-13T07:36:38.251Z,99559.03
2023-02-13T07:39:05.046Z,99553.09
2023-02-13T07:41:31.592Z,99550.75
2023-02-13T07:43:58.096Z,99555.88
2023-02-13T07:46:24.558Z,99544.19
2023-02-13T07:48:54.511Z,99557.31
2023-02-13T07:51:25.162Z,99544.84
2023-02-13T07:53:52.516Z,99553.91
2023-02-13T07:56:18.987Z,99548.50
2023-02-13T07:58:45.489Z,99552.81
2023-02-13T08:01:13.839Z,99556.84
2023-02-13T08:03:40.601Z,99556.84
2023-02-13T08:06:07.601Z,99554.06
2023-02-13T08:08:34.604Z,99555.88
2023-02-13T08:11:26.030Z,99550.34
2023-02-13T08:13:52.713Z,99550.72
2023-02-13T08:16:19.353Z,99547.38
2023-02-13T08:18:45.887Z,99544.94
2023-02-13T08:21:12.429Z,99538.81
2023-02-13T08:23:38.981Z,99539.25
2023-02-13T08:26:05.412Z,99536.03
2023-02-13T08:28:31.928Z,99534.63
2023-02-13T08:30:58.458Z,99535.69
2023-02-13T08:33:25.063Z,99526.38
2023-02-13T08:35:51.508Z,99530.34
2023-02-13T08:38:17.985Z,99527.59
2023-02-13T08:40:44.448Z,99531.38
2023-02-13T08:43:10.894Z,99525.25
2023-02-13T08:45:37.557Z,99534.41
2023-02-13T08:48:04.224Z,99526.00
2023-02-13T08:50:31.030Z,99526.75
2023-02-13T08:52:58.185Z,99535.47
2023-02-13T08:55:24.758Z,99528.69
2023-02-13T08:57:51.259Z,99519.97
2023-02-13T09:00:17.803Z,99523.00
2023-02-13T09:02:44.269Z,99521.19
2023-02-13T09:05:10.806Z,99522.16
2023-02-13T09:07:37.334Z,99525.84
2023-02-13T09:10:03.908Z,99521.38
2023-02-13T09:12:30.340Z,99523.56
2023-02-13T09:14:56.939Z,99527.44
2023-02-13T09:17:23.363Z,99531.34
2023-02-13T09:19:49.840Z,99529.47
2023-02-13T09:22:17.308Z,99534.59
2023-02-13T09:24:43.796Z,99538.69
2023-02-13T09:27:10.259Z,99540.59
2023-02-13T09:29:36.816Z,99533.88
2023-02-13T09:32:04.504Z,99545.13
2023-02-13T09:34:31.033Z,99546.28
2023-02-13T09:36:57.484Z,99549.81
2023-02-13T09:39:23.998Z,99550.63
2023-02-13T09:41:52.611Z,99542.94
2023-02-13T09:44:34.434Z,99546.41
2023-02-13T09:47:14.944Z,99546.75
2023-02-13T09:49:43.346Z,99545.75
2023-02-13T09:52:10.081Z,99551.06
2023-02-13T09:54:36.582Z,99552.25
2023-02-13T09:57:08.008Z,99548.41
2023-02-13T09:59:43.987Z,99557.00
2023-02-13T10:02:29.341Z,99551.72
2023-02-13T10:05:01.833Z,99552.56
2023-02-13T10:07:37.496Z,99553.63
2023-02-13T10:10:24.236Z,99545.00
2023-02-13T10:12:56.195Z,99552.13
2023-02-13T10:15:41.536Z,99540.63
2023-02-13T10:18:14.526Z,99540.72
2023-02-13T10:20:56.747Z,99536.38
2023-02-13T10:23:35.495Z,99536.66
2023-02-13T10:26:04.194Z,99530.59
2023-02-13T10:28:33.716Z,99521.22
2023-02-13T10:31:05.277Z,99532.38
2023-02-13T10:33:31.792Z,99528.63
2023-02-13T10:36:03.115Z,99523.41
2023-02-13T10:38:31.666Z,99525.31
2023-02-13T10:41:06.542Z,99522.28
2023-02-13T10:43:39.887Z,99513.63
2023-02-13T10:46:15.725Z,99507.84
2023-02-13T10:48:50.619Z,99518.00
2023-02-13T10:51:35.995Z,99513.94
2023-02-13T10:54:21.389Z,99515.47
2023-02-13T10:57:00.216Z,99510.06
2023-02-13T10:59:26.653Z,99509.72
2023-02-13T11:01:57.857Z,99510.59
2023-02-13T11:04:24.489Z,99508.06
2023-02-13T11:06:53.824Z,99502.63
2023-02-13T11:09:20.536Z,99501.94
2023-02-13T11:11:47.311Z,99502.56
2023-02-13T11:14:13.738Z,99501.91
2023-02-13T11:16:43.200Z,99493.81
2023-02-13T11:19:28.605Z,99485.69
2023-02-13T11:21:57.634Z,99492.22
2023-02-13T11:24:25.218Z,99478.28
2023-02-13T11:26:58.462Z,99485.94
2023-02-13T11:29:26.942Z,99478.00
2023-02-13T11:32:12.661Z,99467.69
2023-02-13T11:34:39.293Z,99466.97
2023-02-13T11:37:14.674Z,99469.69
2023-02-13T11:39:41.689Z,99472.97
2023-02-13T11:42:28.009Z,99467.88
2023-02-13T11:45:08.438Z,99467.69
2023-02-13T11:47:37.165Z,99469.25
2023-02-13T11:50:04.963Z,99461.94
2023-02-13T11:52:32.944Z,99465.19
2023-02-13T11:55:00.212Z,99464.03
2023-02-13T11:57:31.196Z,99459.25
2023-02-13T11:59:58.411Z,99450.09
2023-02-13T12:02:46.229Z,99462.06
2023-02-13T12:05:12.736Z,99449.97
2023-02-13T12:07:39.712Z,99451.44
2023-02-13T12:10:17.956Z,99457.22
2023-02-13T12:13:03.233Z,99454.22
2023-02-13T12:15:33.820Z,99443.53
2023-02-13T12:18:09.185Z,99441.25
2023-02-13T12:20:41.177Z,99436.72
2023-02-13T12:23:12.536Z,99437.09
2023-02-13T12:25:42.091Z,99439.72
2023-02-13T12:28:11.834Z,99430.13
2023-02-13T12:30:38.346Z,99428.03
2023-02-13T12:33:17.102Z,99436.44
2023-02-13T12:35:58.860Z,99416.38
2023-02-13T12:38:40.675Z,99420.06
2023-02-13T12:41:21.517Z,99422.72
2023-02-13T12:44:00.193Z,99427.84
2023-02-13T12:46:31.044Z,99414.72
2023-02-13T12:49:20.204Z,99412.16
2023-02-13T12:52:03.792Z,99411.44
2023-02-13T12:54:44.549Z,99408.31
2023-02-13T12:57:13.904Z,99408.44
2023-02-13T12:59:49.546Z,99408.31
2023-02-13T13:02:18.775Z,99400.19
2023-02-13T13:04:57.348Z,99393.47
2023-02-13T13:07:38.472Z,99390.94
2023-02-13T13:10:32.829Z,99398.38
2023-02-13T13:13:25.661Z,99399.31
2023-02-13T13:15:55.347Z,99394.69
2023-02-13T13:18:24.944Z,99388.84
2023-02-13T13:20:52.066Z,99399.94
2023-02-13T13:23:26.453Z,99393.00
2023-02-13T13:25:57.475Z,99393.94
2023-02-13T13:28:26.347Z,99389.06
2023-02-13T13:30:53.512Z,99382.94
2023-02-13T13:33:24.561Z,99391.09
2023-02-13T13:35:50.980Z,99388.59
2023-02-13T13:38:36.867Z,99398.16
2023-02-13T13:41:23.586Z,99388.38
2023-02-13T13:43:49.985Z,99390.50
2023-02-13T13:46:31.752Z,99396.84
2023-02-13T13:48:58.944Z,99398.69
2023-02-13T13:51:25.595Z,99394.31
2023-02-13T13:54:01.455Z,99402.56
2023-02-13T13:56:47.856Z,99396.34
2023-02-13T13:59:18.558Z,99399.06
2023-02-13T14:01:45.161Z,99408.81
2023-02-13T14:04:30.256Z,99406.94
2023-02-13T14:06:59.773Z,99396.69
2023-02-13T14:09:26.194Z,99404.16
2023-02-13T14:11:53.360Z,99403.34
2023-02-13T14:14:28.852Z,99399.59
2023-02-13T14:16:56.349Z,99399.81
2023-02-13T14:19:39.780Z,99395.63
2023-02-13T14:22:29.401Z,99391.06
2023-02-13T14:24:57.540Z,99383.03
2023-02-13T14:27:25.684Z,99383.75
2023-02-13T14:29:52.405Z,99392.47
2023-02-13T14:32:24.931Z,99388.31
2023-02-13T14:34:53.593Z,99386.13
2023-02-13T14:37:31.968Z,99378.97
2023-02-13T14:40:18.637Z,99376.25
2023-02-13T14:42:47.307Z,99374.81
2023-02-13T14:45:17.118Z,99378.97
2023-02-13T14:47:53.489Z,99380.69
2023-02-13T14:50:23.373Z,99375.06
2023-02-13T14:52:50.689Z,99376.25
2023-02-13T14:55:20.757Z,99377.03
2023-02-13T14:57:49.239Z,99374.28
2023-02-13T15:00:24.956Z,99376.56
2023-02-13T15:02:58.635Z,99370.38
2023-02-13T15:05:29.809Z,99368.19
2023-02-13T15:08:05.307Z,99364.50
2023-02-13T15:10:31.746Z,99360.06
2023-02-13T15:12:59.309Z,99362.25
2023-02-13T15:15:32.191Z,99359.34
2023-02-13T15:18:18.889Z,99352.19
2023-02-13T15:20:46.280Z,99357.22
2023-02-13T15:23:24.559Z,99365.31
2023-02-13T15:26:01.271Z,99360.78
2023-02-13T15:28:28.030Z,99359.97
2023-02-13T15:30:57.181Z,99352.78
2023-02-13T15:33:25.168Z,99350.75
2023-02-13T15:36:01.760Z,99360.00
2023-02-13T15:38:33.393Z,99355.22
2023-02-13T15:41:09.018Z,99355.50
2023-02-13T15:43:37.543Z,99350.50
2023-02-13T15:46:27.431Z,99340.25
2023-02-13T15:48:54.640Z,99347.13
2023-02-13T15:51:22.502Z,99355.38
2023-02-13T15:53:52.984Z,99351.88
2023-02-13T15:56:19.601Z,99361.09
2023-02-13T15:58:46.528Z,99357.81
2023-02-13T16:01:13.558Z,99353.13
2023-02-13T16:03:40.585Z,99352.09
2023-02-13T16:06:07.806Z,99354.91
2023-02-13T16:08:36.066Z,99356.06
2023-02-13T16:11:28.813Z,99355.97
2023-02-13T16:13:58.286Z,99357.50
2023-02-13T16:16:25.107Z,99362.47
2023-02-13T16:18:52.249Z,99358.53
2023-02-13T16:21:26.375Z,99359.00
2023-02-13T16:23:56.892Z,99369.91
2023-02-13T16:26:23.532Z,99366.94
2023-02-13T16:28:50.068Z,99374.28
2023-02-13T16:31:17.124Z,99378.28
2023-02-13T16:33:43.757Z,99382.06
2023-02-13T16:36:10.191Z,99388.50
2023-02-13T16:38:38.057Z,99384.88
2023-02-13T16:41:04.537Z,99385.44
2023-02-13T16:43:35.190Z,99383.66
2023-02-13T16:46:10.741Z,99379.66
2023-02-13T16:48:37.560Z,99385.81
2023-02-13T16:51:04.154Z,99385.25
2023-02-13T16:53:31.952Z,99385.25
2023-02-13T16:56:05.758Z,99391.78
2023-02-13T16:58:32.222Z,99396.25
2023-02-13T17:00:59.508Z,99394.97
2023-02-13T17:03:26.208Z,99386.13
2023-02-13T17:05:52.655Z,99394.28
2023-02-13T17:08:19.179Z,99404.94
2023-02-13T17:11:01.359Z,99403.31
2023-02-13T17:13:28.005Z,99400.13
2023-02-13T17:15:55.234Z,99412.38
2023-02-13T17:18:21.915Z,99409.03
2023-02-13T17:20:49.567Z,99408.44
2023-02-13T17:23:22.383Z,99410.09
2023-02-13T17:25:49.770Z,99406.47
2023-02-13T17:28:18.621Z,99410.94
2023-02-13T17:30:45.848Z,99412.38
2023-02-13T17:33:14.731Z,99411.31
2023-02-13T17:35:41.193Z,99419.84
2023-02-13T17:38:09.514Z,99419.53
2023-02-13T17:40:36.253Z,99418.88
2023-02-13T17:43:02.777Z,99423.84
2023-02-13T17:45:30.407Z,99421.88
2023-02-13T17:47:59.567Z,99423.63
2023-02-13T17:50:27.782Z,99428.34
2023-02-13T17:52:54.713Z,99427.97
2023-02-13T17:55:21.149Z,99427.09
2023-02-13T17:57:48.165Z,99433.47
2023-02-13T18:00:15.205Z,99443.44
2023-02-13T18:02:42.652Z,99440.94
2023-02-13T18:05:09.837Z,99433.53
2023-02-13T18:07:36.365Z,99442.06
2023-02-13T18:10:02.855Z,99443.56
2023-02-13T18:12:29.377Z,99441.28
2023-02-13T18:14:55.791Z,99444.13
2023-02-13T18:17:22.386Z,99434.53
2023-02-13T18:19:50.450Z,99432.91
2023-02-13T18:22:16.986Z,99418.16
2023-02-13T18:24:43.495Z,99429.31
2023-02-13T18:27:11.310Z,99426.59
2023-02-13T18:29:38.150Z,99432.47
2023-02-13T18:32:05.738Z,99433.44
2023-02-13T18:34:33.108Z,99434.13
2023-02-13T18:36:59.667Z,99424.75
2023-02-13T18:39:26.158Z,99425.91
2023-02-13T18:41:52.695Z,99423.16
2023-02-13T18:44:28.157Z,99423.88
2023-02-13T18:46:55.298Z,99431.56
2023-02-13T18:49:21.713Z,99426.41
2023-02-13T18:51:48.156Z,99431.84
2023-02-13T18:54:14.729Z,99430.22
2023-02-13T18:56:41.469Z,99427.09
2023-02-13T18:59:07.908Z,99421.63
2023-02-13T19:01:35.424Z,99419.06
2023-02-13T19:04:02.753Z,99416.13
2023-02-13T19:06:29.544Z,99412.41
2023-02-13T19:08:56.678Z,99410.50
2023-02-13T19:11:24.768Z,99427.78
2023-02-13T19:13:55.383Z,99441.19
2023-02-13T19:16:22.568Z,99446.06
2023-02-13T19:18:52.946Z,99446.59
2023-02-13T19:21:20.416Z,99451.38
2023-02-13T19:23:47.030Z,99448.13
2023-02-13T19:26:15.319Z,99442.06
2023-02-13T19:28:42.079Z,99446.63
2023-02-13T19:31:13.762Z,99432.31
2023-02-13T19:33:40.714Z,99424.88
2023-02-13T19:36:09.550Z,99428.81
2023-02-13T19:38:36.568Z,99432.06
2023-02-13T19:41:06.620Z,99429.72
2023-02-13T19:43:33.179Z,99423.25
2023-02-13T19:46:05.021Z,99419.25
2023-02-13T19:48:31.932Z,99413.88
2023-02-13T19:50:58.667Z,99425.94
2023-02-13T19:53:25.482Z,99426.34
2023-02-13T19:55:58.151Z,99420.91
2023-02-13T19:58:24.584Z,99417.50
2023-02-13T20:00:51.128Z,99416.94
2023-02-13T20:03:17.569Z,99408.56
2023-02-13T20:05:44.163Z,99407.53
2023-02-13T20:08:11.132Z,99406.47
2023-02-13T20:10:37.777Z,99408.50
2023-02-13T20:13:04.780Z,99411.38
2023-02-13T20:15:32.416Z,99408.50
2023-02-13T20:17:59.053Z,99405.16
2023-02-13T20:20:27.737Z,99410.47
2023-02-13T20:22:54.214Z,99408.72
2023-02-13T20:25:22.100Z,99405.22
2023-02-13T20:27:48.613Z,99411.25
2023-02-13T20:30:15.622Z,99405.34
2023-02-13T20:32:42.801Z,99404.41
2023-02-13T20:35:09.539Z,99405.66
2023-02-13T20:37:35.962Z,99419.13
2023-02-13T20:40:02.459Z,99411.59
2023-02-13T20:42:28.990Z,99415.63
2023-02-13T20:44:55.441Z,99419.38
2023-02-13T20:47:21.935Z,99416.91
2023-02-13T20:49:48.418Z,99419.81
2023-02-13T20:52:14.875Z,99415.06
2023-02-13T20:54:41.480Z,99421.66
2023-02-13T20:57:08.069Z,99419.91
2023-02-13T20:59:34.511Z,99399.84
2023-02-13T21:02:01.046Z,99399.41
2023-02-13T21:04:29.079Z,99403.22
2023-02-13T21:06:55.753Z,99407.34
2023-02-13T21:09:22.199Z,99406.97
2023-02-13T21:11:48.738Z,99405.81
2023-02-13T21:14:15.207Z,99412.44
2023-02-13T21:16:42.039Z,99412.53
2023-02-13T21:19:11.749Z,99403.94
2023-02-13T21:21:38.858Z,99399.41
2023-02-13T21:24:08.369Z,99395.13
2023-02-13T21:26:36.863Z,99396.47
2023-02-13T21:29:03.419Z,99396.47
2023-02-13T21:31:31.910Z,99396.63
2023-02-13T21:34:05.467Z,99388.69
2023-02-13T21:36:32.810Z,99376.84
2023-02-13T21:38:59.978Z,99384.59
2023-02-13T21:41:26.417Z,99386.91
2023-02-13T21:43:52.951Z,99387.69
2023-02-13T21:46:27.081Z,99375.16
2023-02-13T21:48:54.483Z,99390.97
2023-02-13T21:51:21.560Z,99390.16
2023-02-13T21:53:48.739Z,99392.81
2023-02-13T21:56:16.992Z,99393.59
2023-02-13T21:58:44.242Z,99389.50
2023-02-13T22:01:23.989Z,99387.28
2023-02-13T22:03:52.325Z,99384.78
2023-02-13T22:06:19.899Z,99380.47
2023-02-13T22:08:46.686Z,99384.84
2023-02-13T22:11:13.242Z,99384.41
2023-02-13T22:13:39.760Z,99390.47
2023-02-13T22:16:07.666Z,99404.88
2023-02-13T22:18:35.995Z,99405.91
2023-02-13T22:21:09.780Z,99400.13
2023-02-13T22:23:36.982Z,99399.75
2023-02-13T22:26:03.830Z,99405.84
2023-02-13T22:28:30.508Z,99404.28
2023-02-13T22:30:57.537Z,99395.97
2023-02-13T22:33:24.273Z,99394.75
2023-02-13T22:35:50.731Z,99405.63
2023-02-13T22:38:17.391Z,99405.66
2023-02-13T22:40:44.259Z,99394.16
2023-02-13T22:43:10.697Z,99393.66
2023-02-13T22:45:37.848Z,99395.25
2023-02-13T22:48:04.929Z,99391.38
2023-02-13T22:50:31.513Z,99391.19
2023-02-13T22:52:57.986Z,99404.69
2023-02-13T22:55:24.440Z,99409.63
2023-02-13T22:57:54.272Z,99410.19
2023-02-13T23:00:22.490Z,99418.69
2023-02-13T23:02:49.573Z,99418.41
2023-02-13T23:05:16.461Z,99416.03
2023-02-13T23:07:44.128Z,99398.56
2023-02-13T23:10:11.341Z,99395.03
2023-02-13T23:12:39.044Z,99404.31
2023-02-13T23:15:07.067Z,99405.09
2023-02-13T23:17:52.050Z,99405.50
2023-02-13T23:20:19.141Z,99403.81
2023-02-13T23:22:45.632Z,99408.66
2023-02-13T23:25:12.376Z,99404.59
2023-02-13T23:27:39.161Z,99413.53
2023-02-13T23:30:06.790Z,99411.47
2023-02-13T23:32:33.366Z,99396.69
2023-02-13T23:34:59.814Z,99392.75
2023-02-13T23:37:26.345Z,99408.09
2023-02-13T23:39:52.768Z,99402.53
2023-02-13T23:42:19.257Z,99396.78
2023-02-13T23:44:45.704Z,99402.31
2023-02-13T23:47:12.174Z,99393.16
2023-02-13T23:49:38.624Z,99386.91
2023-02-13T23:52:05.075Z,99389.59
2023-02-13T23:54:31.559Z,99390.13
2023-02-13T23:56:58.059Z,99392.53
2023-02-13T23:59:24.651Z,99382.06
